createdAt,value
2017-12-23T00:02:30.602Z,5.30
2017-12-23T00:05:00.403Z,5.30
2017-12-23T00:07:30.970Z,5.40
2017-12-23T00:10:00.757Z,5.30
2017-12-23T00:12:30.354Z,5.40
2017-12-23T00:15:00.158Z,5.40
2017-12-23T00:17:30.090Z,5.30
2017-12-23T00:19:59.845Z,5.40
2017-12-23T00:22:29.706Z,5.30
2017-12-23T00:24:59.159Z,5.30
2017-12-23T00:27:29.834Z,5.30
2017-12-23T00:29:59.591Z,5.30
2017-12-23T00:32:29.412Z,5.40
2017-12-23T00:34:59.320Z,5.30
2017-12-23T00:37:29.069Z,5.30
2017-12-23T00:39:59.680Z,5.30
2017-12-23T00:42:30.274Z,5.20
2017-12-23T00:45:00.206Z,5.20
2017-12-23T00:47:29.925Z,5.20
2017-12-23T00:49:59.881Z,5.20
2017-12-23T00:52:30.422Z,5.30
2017-12-23T00:55:00.396Z,5.30
2017-12-23T00:57:31.043Z,5.30
2017-12-23T01:00:01.571Z,5.30
2017-12-23T01:02:31.626Z,5.30
2017-12-23T01:05:01.385Z,5.30
2017-12-23T01:07:31.272Z,5.30
2017-12-23T01:10:01.141Z,5.20
2017-12-23T01:12:31.003Z,5.20
2017-12-23T01:15:00.805Z,5.20
2017-12-23T01:17:30.612Z,5.20
2017-12-23T01:20:01.170Z,5.20
2017-12-23T01:22:30.944Z,5.20
2017-12-23T01:25:02.300Z,5.30
2017-12-23T01:27:32.123Z,5.20
2017-12-23T01:30:03.080Z,5.30
2017-12-23T01:32:32.824Z,5.20
2017-12-23T01:35:02.628Z,5.20
2017-12-23T01:37:32.366Z,5.20
2017-12-23T01:40:02.357Z,5.20
2017-12-23T01:42:32.191Z,5.10
2017-12-23T01:45:03.455Z,5.20
2017-12-23T01:47:34.016Z,5.20
2017-12-23T01:50:03.756Z,5.20
2017-12-23T01:52:33.263Z,5.20
2017-12-23T01:55:03.014Z,5.20
2017-12-23T01:57:32.758Z,5.20
2017-12-23T02:00:02.903Z,5.30
2017-12-23T02:02:32.638Z,5.30
2017-12-23T02:05:02.389Z,5.30
2017-12-23T02:07:32.541Z,5.30
2017-12-23T02:10:02.331Z,5.30
2017-12-23T02:12:32.057Z,5.30
2017-12-23T02:15:01.534Z,5.30
2017-12-23T02:17:31.249Z,5.30
2017-12-23T02:20:00.720Z,5.40
2017-12-23T02:22:30.437Z,5.40
2017-12-23T02:24:59.958Z,5.40
2017-12-23T02:27:30.455Z,5.40
2017-12-23T02:30:00.202Z,5.40
2017-12-23T02:32:29.746Z,5.40
2017-12-23T02:34:59.486Z,5.30
2017-12-23T02:37:29.236Z,5.40
2017-12-23T02:39:58.691Z,5.30
2017-12-23T02:42:28.466Z,5.30
2017-12-23T02:44:57.955Z,5.30
2017-12-23T02:47:28.996Z,5.40
2017-12-23T02:49:58.793Z,5.40
2017-12-23T02:52:29.318Z,5.40
2017-12-23T02:54:58.786Z,5.30
2017-12-23T02:57:28.542Z,5.30
2017-12-23T02:59:58.007Z,5.40
2017-12-23T03:02:27.126Z,5.30
2017-12-23T03:04:56.633Z,5.30
2017-12-23T03:07:27.164Z,5.30
2017-12-23T03:09:56.916Z,5.30
2017-12-23T03:12:26.749Z,5.30
2017-12-23T03:14:56.512Z,5.30
2017-12-23T03:17:27.033Z,5.20
2017-12-23T03:19:57.556Z,5.20
2017-12-23T03:22:28.101Z,5.20
2017-12-23T03:24:57.824Z,5.20
2017-12-23T03:27:28.364Z,5.20
2017-12-23T03:29:58.081Z,5.20
2017-12-23T03:32:27.837Z,5.20
2017-12-23T03:34:57.550Z,5.10
2017-12-23T03:37:27.383Z,5.10
2017-12-23T03:39:57.927Z,5.10
2017-12-23T03:42:28.463Z,5.10
2017-12-23T03:44:58.243Z,5.10
2017-12-23T03:47:28.023Z,5.10
2017-12-23T03:49:57.818Z,5.00
2017-12-23T03:52:27.558Z,5.00
2017-12-23T03:54:57.350Z,5.00
2017-12-23T03:57:27.077Z,5.00
2017-12-23T03:59:56.862Z,5.00
2017-12-23T04:02:26.639Z,4.90
2017-12-23T04:04:57.129Z,4.90
2017-12-23T04:07:26.928Z,4.90
2017-12-23T04:09:56.681Z,4.90
2017-12-23T04:12:27.218Z,5.00
2017-12-23T04:14:57.721Z,5.00
2017-12-23T04:17:27.232Z,4.90
2017-12-23T04:19:57.002Z,4.90
2017-12-23T04:22:26.799Z,4.90
2017-12-23T04:24:56.572Z,5.00
2017-12-23T04:27:26.334Z,5.00
2017-12-23T04:29:56.104Z,4.90
2017-12-23T04:32:26.663Z,4.90
2017-12-23T04:34:56.373Z,4.90
2017-12-23T04:37:26.150Z,4.90
2017-12-23T04:39:55.640Z,4.90
2017-12-23T04:42:25.411Z,4.90
2017-12-23T04:44:55.182Z,4.90
2017-12-23T04:47:25.685Z,4.90
2017-12-23T04:49:55.510Z,4.90
2017-12-23T04:52:25.901Z,4.90
2017-12-23T04:54:55.989Z,4.90
2017-12-23T04:57:25.734Z,4.90
2017-12-23T04:59:55.536Z,4.90
2017-12-23T05:02:25.266Z,4.90
2017-12-23T05:04:55.054Z,4.90
2017-12-23T05:07:25.744Z,4.90
2017-12-23T05:09:57.133Z,4.80
2017-12-23T05:12:26.920Z,4.90
2017-12-23T05:14:56.657Z,4.90
2017-12-23T05:17:26.175Z,4.90
2017-12-23T05:19:55.921Z,4.90
2017-12-23T05:22:26.473Z,4.90
2017-12-23T05:24:56.299Z,4.90
2017-12-23T05:27:26.093Z,4.90
2017-12-23T05:29:55.843Z,4.90
2017-12-23T05:32:25.610Z,4.90
2017-12-23T05:34:56.302Z,4.90
2017-12-23T05:37:26.076Z,4.90
2017-12-23T05:39:55.853Z,4.90
2017-12-23T05:42:26.372Z,4.90
2017-12-23T05:44:56.973Z,4.90
2017-12-23T05:47:26.694Z,4.90
2017-12-23T05:49:56.485Z,4.90
2017-12-23T05:52:26.257Z,4.90
2017-12-23T05:54:56.803Z,4.80
2017-12-23T05:57:26.260Z,4.80
2017-12-23T05:59:56.054Z,4.90
2017-12-23T06:02:25.802Z,4.80
2017-12-23T06:04:56.336Z,4.80
2017-12-23T06:07:26.074Z,4.80
2017-12-23T06:09:55.843Z,4.90
2017-12-23T06:12:25.861Z,4.80
2017-12-23T06:14:55.637Z,4.90
2017-12-23T06:17:25.390Z,4.90
2017-12-23T06:19:55.166Z,4.90
2017-12-23T06:22:24.940Z,4.90
2017-12-23T06:24:54.941Z,4.90
2017-12-23T06:27:26.291Z,4.90
2017-12-23T06:29:56.834Z,4.90
2017-12-23T06:32:27.340Z,4.90
2017-12-23T06:34:57.122Z,4.90
2017-12-23T06:37:26.908Z,4.90
2017-12-23T06:39:56.654Z,4.90
2017-12-23T06:42:26.435Z,5.00
2017-12-23T06:44:56.186Z,5.00
2017-12-23T06:47:27.472Z,5.00
2017-12-23T06:49:57.209Z,5.00
2017-12-23T06:52:27.188Z,5.10
2017-12-23T06:54:57.742Z,5.10
2017-12-23T06:57:27.559Z,5.10
2017-12-23T06:59:57.327Z,5.10
2017-12-23T07:02:27.279Z,5.10
2017-12-23T07:04:57.028Z,5.20
2017-12-23T07:07:26.818Z,5.20
2017-12-23T07:09:56.560Z,5.20
2017-12-23T07:12:26.350Z,5.20
2017-12-23T07:14:56.085Z,5.30
2017-12-23T07:17:25.849Z,5.30
2017-12-23T07:19:55.808Z,5.30
2017-12-23T07:22:25.550Z,5.30
2017-12-23T07:24:56.072Z,5.40
2017-12-23T07:27:25.801Z,5.30
2017-12-23T07:29:55.581Z,5.40
2017-12-23T07:32:25.381Z,5.50
2017-12-23T07:34:55.165Z,5.50
2017-12-23T07:37:24.739Z,5.50
2017-12-23T07:39:55.304Z,5.60
2017-12-23T07:42:25.045Z,5.60
2017-12-23T07:44:54.821Z,5.60
2017-12-23T07:47:24.556Z,5.60
2017-12-23T07:49:54.408Z,5.70
2017-12-23T07:52:24.952Z,5.80
2017-12-23T07:54:54.762Z,5.70
2017-12-23T07:57:25.294Z,5.80
2017-12-23T07:59:55.026Z,5.80
2017-12-23T08:02:24.894Z,5.90
2017-12-23T08:04:54.639Z,5.90
2017-12-23T08:07:25.320Z,5.90
2017-12-23T08:09:55.097Z,5.90
2017-12-23T08:12:24.865Z,6.00
2017-12-23T08:14:54.681Z,6.00
2017-12-23T08:17:25.197Z,6.20
2017-12-23T08:19:55.523Z,6.20
2017-12-23T08:22:25.351Z,6.20
2017-12-23T08:24:55.895Z,6.30
2017-12-23T08:27:25.351Z,6.20
2017-12-23T08:29:55.140Z,6.30
2017-12-23T08:32:24.873Z,6.30
2017-12-23T08:34:54.637Z,6.30
2017-12-23T08:37:24.409Z,6.40
2017-12-23T08:39:54.212Z,6.40
2017-12-23T08:42:23.934Z,6.50
2017-12-23T08:44:53.724Z,6.50
2017-12-23T08:47:23.608Z,6.50
2017-12-23T08:49:54.138Z,6.60
2017-12-23T08:52:24.664Z,6.60
2017-12-23T08:54:55.275Z,6.60
2017-12-23T08:57:25.062Z,6.60
2017-12-23T08:59:54.819Z,6.60
2017-12-23T09:02:25.367Z,6.60
2017-12-23T09:04:55.129Z,6.60
2017-12-23T09:07:24.878Z,6.60
2017-12-23T09:09:54.658Z,6.70
2017-12-23T09:12:24.382Z,6.70
2017-12-23T09:14:54.149Z,6.70
2017-12-23T09:17:23.948Z,6.70
2017-12-23T09:19:54.605Z,6.80
2017-12-23T09:22:24.442Z,6.70
2017-12-23T09:24:54.189Z,6.80
2017-12-23T09:27:23.957Z,6.80
2017-12-23T09:29:54.465Z,6.90
2017-12-23T09:32:24.243Z,6.90
2017-12-23T09:34:53.985Z,6.90
2017-12-23T09:37:23.757Z,6.90
2017-12-23T09:39:53.498Z,6.90
2017-12-23T09:42:23.252Z,6.90
2017-12-23T09:44:53.022Z,6.90
2017-12-23T09:47:22.786Z,6.90
2017-12-23T09:49:53.288Z,6.90
2017-12-23T09:52:23.053Z,6.90
2017-12-23T09:54:52.821Z,6.90
2017-12-23T09:57:23.342Z,7.00
2017-12-23T09:59:53.120Z,7.00
2017-12-23T10:02:22.839Z,7.00
2017-12-23T10:04:52.630Z,7.00
2017-12-23T10:07:22.350Z,7.00
2017-12-23T10:09:52.139Z,7.10
2017-12-23T10:12:22.630Z,7.00
2017-12-23T10:14:53.176Z,7.00
2017-12-23T10:17:23.485Z,7.00
2017-12-23T10:19:53.236Z,7.00
2017-12-23T10:22:23.778Z,7.10
2017-12-23T10:24:53.730Z,7.10
2017-12-23T10:27:23.504Z,7.10
2017-12-23T10:29:53.281Z,7.10
2017-12-23T10:32:23.026Z,7.10
2017-12-23T10:34:52.801Z,7.20
2017-12-23T10:37:23.290Z,7.20
2017-12-23T10:39:53.050Z,7.30
2017-12-23T10:42:23.538Z,7.40
2017-12-23T10:44:53.312Z,7.40
2017-12-23T10:47:23.794Z,7.50
2017-12-23T10:49:54.729Z,7.50
2017-12-23T10:52:28.737Z,7.50
2017-12-23T10:54:59.909Z,7.50
2017-12-23T10:57:30.668Z,7.50
2017-12-23T11:00:00.486Z,7.60
2017-12-23T11:02:30.013Z,7.60
2017-12-23T11:04:59.720Z,7.70
2017-12-23T11:07:29.510Z,7.60
2017-12-23T11:09:59.245Z,7.70
2017-12-23T11:12:29.028Z,7.70
2017-12-23T11:14:58.826Z,7.70
2017-12-23T11:17:29.334Z,7.80
2017-12-23T11:19:59.082Z,7.80
2017-12-23T11:22:28.804Z,7.80
2017-12-23T11:24:58.604Z,7.90
2017-12-23T11:27:28.353Z,7.90
2017-12-23T11:29:58.197Z,7.90
2017-12-23T11:32:27.917Z,8.00
2017-12-23T11:34:58.436Z,8.00
2017-12-23T11:37:28.191Z,8.00
2017-12-23T11:39:57.932Z,8.10
2017-12-23T11:42:27.726Z,8.00
2017-12-23T11:44:57.515Z,8.10
2017-12-23T11:47:28.228Z,8.10
2017-12-23T11:49:58.839Z,8.20
2017-12-23T11:52:28.594Z,8.10
2017-12-23T11:54:58.466Z,8.20
2017-12-23T11:57:28.288Z,8.20
2017-12-23T11:59:58.065Z,8.20
2017-12-23T12:02:27.820Z,8.20
2017-12-23T12:04:58.318Z,8.20
2017-12-23T12:07:28.150Z,8.20
2017-12-23T12:09:57.854Z,8.20
2017-12-23T12:12:28.386Z,8.20
2017-12-23T12:14:57.981Z,8.20
2017-12-23T12:17:27.775Z,8.20
2017-12-23T12:19:57.552Z,8.20
2017-12-23T12:22:28.115Z,8.20
2017-12-23T12:24:57.880Z,8.20
2017-12-23T12:27:28.421Z,8.20
2017-12-23T12:29:58.931Z,8.20
2017-12-23T12:32:28.668Z,8.20
2017-12-23T12:34:58.403Z,8.20
2017-12-23T12:37:28.207Z,8.20
2017-12-23T12:39:57.948Z,8.20
2017-12-23T12:42:27.720Z,8.20
2017-12-23T12:44:57.428Z,8.20
2017-12-23T12:47:27.170Z,8.20
2017-12-23T12:49:56.926Z,8.20
2017-12-23T12:52:27.460Z,8.20
2017-12-23T12:54:57.943Z,8.20
2017-12-23T12:57:27.727Z,8.20
2017-12-23T12:59:57.540Z,8.20
2017-12-23T13:02:27.253Z,8.30
2017-12-23T13:04:56.725Z,8.30
2017-12-23T13:07:27.219Z,8.30
2017-12-23T13:09:57.022Z,8.30
2017-12-23T13:12:26.733Z,8.30
2017-12-23T13:14:56.496Z,8.30
2017-12-23T13:17:27.081Z,8.30
2017-12-23T13:19:57.071Z,8.30
2017-12-23T13:22:26.967Z,8.40
2017-12-23T13:24:57.438Z,8.40
2017-12-23T13:27:27.410Z,8.40
2017-12-23T13:29:57.910Z,8.40
2017-12-23T13:32:27.884Z,8.40
2017-12-23T13:34:57.614Z,8.50
2017-12-23T13:37:27.385Z,8.50
2017-12-23T13:39:57.144Z,8.50
2017-12-23T13:42:26.874Z,8.50
2017-12-23T13:44:57.395Z,8.60
2017-12-23T13:47:27.112Z,8.50
2017-12-23T13:49:56.856Z,8.60
2017-12-23T13:52:26.583Z,8.60
2017-12-23T13:54:56.098Z,8.60
2017-12-23T13:57:25.839Z,8.70
2017-12-23T13:59:55.622Z,8.70
2017-12-23T14:02:25.194Z,8.70
2017-12-23T14:04:54.940Z,8.70
2017-12-23T14:07:24.715Z,8.70
2017-12-23T14:09:55.195Z,8.70
2017-12-23T14:12:24.968Z,8.70
2017-12-23T14:14:54.683Z,8.80
2017-12-23T14:17:24.437Z,8.80
2017-12-23T14:19:54.173Z,8.70
2017-12-23T14:22:24.727Z,8.80
2017-12-23T14:24:54.471Z,8.80
2017-12-23T14:27:24.227Z,8.80
2017-12-23T14:29:53.971Z,8.80
2017-12-23T14:32:23.713Z,8.80
2017-12-23T14:34:53.519Z,8.80
2017-12-23T14:37:23.286Z,8.80
2017-12-23T14:39:53.812Z,8.70
2017-12-23T14:42:24.364Z,8.70
2017-12-23T14:44:54.113Z,8.70
2017-12-23T14:47:23.884Z,8.70
2017-12-23T14:49:53.623Z,8.80
2017-12-23T14:52:23.390Z,8.80
2017-12-23T14:54:53.122Z,8.80
2017-12-23T14:57:22.567Z,8.80
2017-12-23T14:59:53.086Z,8.80
2017-12-23T15:02:22.853Z,8.80
2017-12-23T15:04:52.601Z,8.80
2017-12-23T15:07:22.381Z,8.90
2017-12-23T15:09:52.150Z,8.80
2017-12-23T15:12:21.914Z,8.80
2017-12-23T15:14:51.683Z,8.80
2017-12-23T15:17:22.181Z,8.80
2017-12-23T15:19:51.949Z,8.80
2017-12-23T15:22:21.706Z,8.80
2017-12-23T15:24:51.666Z,8.80
2017-12-23T15:27:22.463Z,8.80
2017-12-23T15:29:52.187Z,8.80
2017-12-23T15:32:22.742Z,8.90
2017-12-23T15:34:52.739Z,8.80
2017-12-23T15:37:23.284Z,8.90
2017-12-23T15:39:53.824Z,8.80
2017-12-23T15:42:23.612Z,8.80
2017-12-23T15:44:54.405Z,8.90
2017-12-23T15:47:24.163Z,8.80
2017-12-23T15:49:54.703Z,8.90
2017-12-23T15:52:24.439Z,8.90
2017-12-23T15:54:54.246Z,8.90
2017-12-23T15:57:24.002Z,8.80
2017-12-23T15:59:53.579Z,8.90
2017-12-23T16:02:23.365Z,8.90
2017-12-23T16:04:53.170Z,8.90
2017-12-23T16:07:24.619Z,8.80
2017-12-23T16:09:55.211Z,8.90
2017-12-23T16:12:24.953Z,8.90
2017-12-23T16:14:55.487Z,8.90
2017-12-23T16:17:25.226Z,8.90
2017-12-23T16:19:54.995Z,8.90
2017-12-23T16:22:25.497Z,8.90
2017-12-23T16:24:55.282Z,8.90
2017-12-23T16:27:25.020Z,8.90
2017-12-23T16:29:54.818Z,8.90
2017-12-23T16:32:24.543Z,8.90
2017-12-23T16:34:54.306Z,8.90
2017-12-23T16:37:24.808Z,8.90
2017-12-23T16:39:54.578Z,8.90
2017-12-23T16:42:24.303Z,9.00
2017-12-23T16:44:54.085Z,8.90
2017-12-23T16:47:24.563Z,8.90
2017-12-23T16:49:54.305Z,8.90
2017-12-23T16:52:24.138Z,9.00
2017-12-23T16:54:54.634Z,9.00
2017-12-23T16:57:24.409Z,9.00
2017-12-23T16:59:54.145Z,9.00
2017-12-23T17:02:23.916Z,9.00
2017-12-23T17:04:54.402Z,9.00
2017-12-23T17:07:24.190Z,9.00
2017-12-23T17:09:53.917Z,9.00
2017-12-23T17:12:23.669Z,9.00
2017-12-23T17:14:54.224Z,8.90
2017-12-23T17:17:24.698Z,8.90
2017-12-23T17:19:54.481Z,8.90
2017-12-23T17:22:24.040Z,8.90
2017-12-23T17:24:53.778Z,9.00
2017-12-23T17:27:23.558Z,9.00
2017-12-23T17:30:04.473Z,9.00
2017-12-23T17:32:33.982Z,9.00
2017-12-23T17:35:03.710Z,8.90
2017-12-23T17:37:33.507Z,8.90
2017-12-23T17:40:03.261Z,8.90
2017-12-23T17:42:33.025Z,8.90
2017-12-23T17:45:02.797Z,8.90
2017-12-23T17:47:32.530Z,8.90
2017-12-23T17:50:03.050Z,8.80
2017-12-23T17:52:33.553Z,8.80
2017-12-23T17:55:03.436Z,8.80
2017-12-23T17:57:33.146Z,8.80
2017-12-23T18:00:02.921Z,8.80
2017-12-23T18:02:32.655Z,8.70
2017-12-23T18:05:02.474Z,8.70
2017-12-23T18:07:32.234Z,8.70
2017-12-23T18:10:03.502Z,8.70
2017-12-23T18:12:33.250Z,8.70
2017-12-23T18:15:02.996Z,8.70
2017-12-23T18:17:32.792Z,8.70
2017-12-23T18:20:02.256Z,8.70
2017-12-23T18:22:32.042Z,8.70
2017-12-23T18:25:02.570Z,8.70
2017-12-23T18:27:32.578Z,8.80
2017-12-23T18:30:02.339Z,8.80
2017-12-23T18:32:32.075Z,8.80
2017-12-23T18:35:01.846Z,8.80
2017-12-23T18:37:31.585Z,8.80
2017-12-23T18:40:01.352Z,8.80
2017-12-23T18:42:31.836Z,8.70
2017-12-23T18:45:01.596Z,8.70
2017-12-23T18:47:31.340Z,8.70
2017-12-23T18:50:01.469Z,8.70
2017-12-23T18:52:31.332Z,8.70
2017-12-23T18:55:01.831Z,8.80
2017-12-23T18:57:31.610Z,8.70
2017-12-23T19:00:01.334Z,8.80
2017-12-23T19:02:30.817Z,8.80
2017-12-23T19:05:00.594Z,8.80
2017-12-23T19:07:30.373Z,8.80
2017-12-23T19:10:00.121Z,8.80
2017-12-23T19:12:29.921Z,8.80
2017-12-23T19:14:59.688Z,8.80
2017-12-23T19:17:30.964Z,8.90
2017-12-23T19:20:02.308Z,8.90
2017-12-23T19:22:32.023Z,8.90
2017-12-23T19:25:01.849Z,8.90
2017-12-23T19:27:31.575Z,8.90
2017-12-23T19:30:02.180Z,9.00
2017-12-23T19:32:31.995Z,9.00
2017-12-23T19:35:01.715Z,9.00
2017-12-23T19:37:31.535Z,9.00
2017-12-23T19:40:02.147Z,9.00
2017-12-23T19:42:31.923Z,9.00
2017-12-23T19:45:01.454Z,9.10
2017-12-23T19:47:31.253Z,9.10
2017-12-23T19:50:01.926Z,9.10
2017-12-23T19:52:31.713Z,9.20
2017-12-23T19:55:01.527Z,9.20
2017-12-23T19:57:31.432Z,9.30
2017-12-23T20:00:01.569Z,9.20
2017-12-23T20:02:31.806Z,9.30
2017-12-23T20:05:01.590Z,9.30
2017-12-23T20:07:31.329Z,9.30
2017-12-23T20:10:01.120Z,9.30
2017-12-23T20:12:30.908Z,9.30
2017-12-23T20:15:00.702Z,9.30
2017-12-23T20:17:30.514Z,9.40
2017-12-23T20:20:00.246Z,9.40
2017-12-23T20:22:30.000Z,9.40
2017-12-23T20:24:59.756Z,9.40
2017-12-23T20:27:29.553Z,9.40
2017-12-23T20:30:00.052Z,9.50
2017-12-23T20:32:30.164Z,9.50
2017-12-23T20:34:59.959Z,9.50
2017-12-23T20:37:29.724Z,9.50
2017-12-23T20:40:00.305Z,9.50
2017-12-23T20:42:30.546Z,9.50
2017-12-23T20:45:00.342Z,9.50
2017-12-23T20:47:30.081Z,9.50
2017-12-23T20:49:59.906Z,9.50
2017-12-23T20:52:30.419Z,9.50
2017-12-23T20:55:00.230Z,9.50
2017-12-23T20:57:30.024Z,9.50
2017-12-23T20:59:59.765Z,9.50
2017-12-23T21:02:29.592Z,9.50
2017-12-23T21:05:00.098Z,9.60
2017-12-23T21:07:29.965Z,9.60
2017-12-23T21:09:59.698Z,9.60
2017-12-23T21:12:29.477Z,9.60
2017-12-23T21:14:59.283Z,9.60
2017-12-23T21:17:30.040Z,9.50
2017-12-23T21:19:59.949Z,9.60
2017-12-23T21:22:29.759Z,9.60
2017-12-23T21:24:59.514Z,9.60
2017-12-23T21:27:29.334Z,9.50
2017-12-23T21:29:59.071Z,9.60
2017-12-23T21:32:29.181Z,9.60
2017-12-23T21:34:59.735Z,9.60
2017-12-23T21:37:29.454Z,9.60
2017-12-23T21:39:59.222Z,9.60
2017-12-23T21:42:28.985Z,9.50
2017-12-23T21:44:58.733Z,9.60
2017-12-23T21:47:28.509Z,9.60
2017-12-23T21:49:58.261Z,9.60
2017-12-23T21:52:28.006Z,9.60
2017-12-23T21:54:57.797Z,9.60
2017-12-23T21:57:28.369Z,9.60
2017-12-23T21:59:58.164Z,9.60
2017-12-23T22:02:27.984Z,9.60
2017-12-23T22:04:57.899Z,9.60
2017-12-23T22:07:27.778Z,9.50
2017-12-23T22:09:58.282Z,9.60
2017-12-23T22:12:29.851Z,9.60
2017-12-23T22:14:59.667Z,9.50
2017-12-23T22:17:29.536Z,9.50
2017-12-23T22:19:59.321Z,9.50
2017-12-23T22:22:29.073Z,9.50
2017-12-23T22:24:58.570Z,9.60
2017-12-23T22:27:29.798Z,9.50
2017-12-23T22:29:59.572Z,9.60
2017-12-23T22:32:29.373Z,9.60
2017-12-23T22:34:59.186Z,9.60
2017-12-23T22:37:28.947Z,9.60
2017-12-23T22:39:58.711Z,9.60
2017-12-23T22:42:38.326Z,9.60
2017-12-23T22:45:08.103Z,9.60
2017-12-23T22:47:37.833Z,9.60
2017-12-23T22:50:07.751Z,9.60
2017-12-23T22:52:37.528Z,9.60
2017-12-23T22:55:07.912Z,9.60
2017-12-23T22:57:39.520Z,9.60
2017-12-23T23:00:09.458Z,9.50
2017-12-23T23:02:39.017Z,9.50
2017-12-23T23:05:08.824Z,9.50
2017-12-23T23:07:38.690Z,9.50
2017-12-23T23:10:08.446Z,9.50
2017-12-23T23:12:38.805Z,9.50
2017-12-23T23:15:08.583Z,9.50
2017-12-23T23:17:38.306Z,9.60
2017-12-23T23:20:08.872Z,9.50
2017-12-23T23:22:38.349Z,9.50
2017-12-23T23:25:08.881Z,9.60
2017-12-23T23:27:38.662Z,9.60
2017-12-23T23:30:08.516Z,9.60
2017-12-23T23:32:38.285Z,9.60
2017-12-23T23:35:08.085Z,9.60
2017-12-23T23:37:37.885Z,9.60
2017-12-23T23:40:07.633Z,9.60
2017-12-23T23:42:38.283Z,9.60
2017-12-23T23:45:08.337Z,9.60
2017-12-23T23:47:37.835Z,9.60
2017-12-23T23:50:07.609Z,9.60
2017-12-23T23:52:38.199Z,9.60
2017-12-23T23:55:07.981Z,9.60
2017-12-23T23:57:38.476Z,9.60
